sensor_id;sensor_type;location;lat;lon;timestamp;pressure;altitude;pressure_sealevel;temperature;humidity
59029;BME280;45919;51.420;5.454;2022-12-07T00:00:23;101656.16;;;4.97;91.32
59029;BME280;45919;51.420;5.454;2022-12-07T00:01:30;101637.47;;;4.86;91.35
59029;BME280;45919;51.420;5.454;2022-12-07T00:02:32;101690.78;;;5.16;91.30
59029;BME280;45919;51.420;5.454;2022-12-07T00:03:34;101691.66;;;5.16;91.05
59029;BME280;45919;51.420;5.454;2022-12-07T00:04:36;101697.72;;;5.17;91.05
59029;BME280;45919;51.420;5.454;2022-12-07T00:05:37;101691.56;;;5.14;91.13
59029;BME280;45919;51.420;5.454;2022-12-07T00:06:44;101696.03;;;5.17;91.20
59029;BME280;45919;51.420;5.454;2022-12-07T00:07:46;101654.78;;;4.87;91.63
59029;BME280;45919;51.420;5.454;2022-12-07T00:08:47;101695.78;;;5.12;91.50
59029;BME280;45919;51.420;5.454;2022-12-07T00:09:49;101696.59;;;5.11;91.67
59029;BME280;45919;51.420;5.454;2022-12-07T00:10:51;101693.94;;;5.10;91.22
59029;BME280;45919;51.420;5.454;2022-12-07T00:11:52;101689.56;;;5.09;91.12
59029;BME280;45919;51.420;5.454;2022-12-07T00:12:54;101665.47;;;4.93;91.39
59029;BME280;45919;51.420;5.454;2022-12-07T00:14:00;101692.06;;;5.07;91.49
59029;BME280;45919;51.420;5.454;2022-12-07T00:15:02;101687.47;;;5.01;91.38
59029;BME280;45919;51.420;5.454;2022-12-07T00:16:14;101681.22;;;4.98;91.72
59029;BME280;45919;51.420;5.454;2022-12-07T00:17:16;101679.38;;;4.95;91.70
59029;BME280;45919;51.420;5.454;2022-12-07T00:18:17;101674.84;;;4.91;91.59
59029;BME280;45919;51.420;5.454;2022-12-07T00:19:19;101654.00;;;4.71;91.91
59029;BME280;45919;51.420;5.454;2022-12-07T00:20:21;101677.22;;;4.86;91.92
59029;BME280;45919;51.420;5.454;2022-12-07T00:21:26;101676.25;;;4.84;92.04
59029;BME280;45919;51.420;5.454;2022-12-07T00:22:28;101675.25;;;4.82;92.34
59029;BME280;45919;51.420;5.454;2022-12-07T00:23:29;101675.34;;;4.84;92.09
59029;BME280;45919;51.420;5.454;2022-12-07T00:24:31;101679.53;;;4.82;91.94
59029;BME280;45919;51.420;5.454;2022-12-07T00:25:32;101672.53;;;4.79;92.08
59029;BME280;45919;51.420;5.454;2022-12-07T00:26:36;101673.38;;;4.79;92.26
59029;BME280;45919;51.420;5.454;2022-12-07T00:27:38;101667.16;;;4.76;92.41
59029;BME280;45919;51.420;5.454;2022-12-07T00:28:40;101635.63;;;4.50;92.04
59029;BME280;45919;51.420;5.454;2022-12-07T00:29:42;101678.34;;;4.75;92.26
59029;BME280;45919;51.420;5.454;2022-12-07T00:30:43;101677.28;;;4.71;92.22
59029;BME280;45919;51.420;5.454;2022-12-07T00:31:45;101674.63;;;4.70;92.40
59029;BME280;45919;51.420;5.454;2022-12-07T00:32:47;101630.06;;;4.42;92.65
59029;BME280;45919;51.420;5.454;2022-12-07T00:33:49;101677.06;;;4.66;92.70
59029;BME280;45919;51.420;5.454;2022-12-07T00:34:51;101671.78;;;4.65;92.52
59029;BME280;45919;51.420;5.454;2022-12-07T00:35:56;101677.94;;;4.67;92.61
59029;BME280;45919;51.420;5.454;2022-12-07T00:36:58;101655.59;;;4.52;92.83
59029;BME280;45919;51.420;5.454;2022-12-07T00:38:00;101671.63;;;4.62;92.64
59029;BME280;45919;51.420;5.454;2022-12-07T00:39:01;101672.44;;;4.61;92.70
59029;BME280;45919;51.420;5.454;2022-12-07T00:40:04;101671.53;;;4.60;93.02
59029;BME280;45919;51.420;5.454;2022-12-07T00:41:09;101671.63;;;4.62;93.10
59029;BME280;45919;51.420;5.454;2022-12-07T00:42:12;101666.28;;;4.59;92.87
59029;BME280;45919;51.420;5.454;2022-12-07T00:43:13;101667.00;;;4.56;92.93
59029;BME280;45919;51.420;5.454;2022-12-07T00:44:15;101668.63;;;4.54;92.81
59029;BME280;45919;51.420;5.454;2022-12-07T00:45:16;101638.44;;;4.38;93.01
59029;BME280;45919;51.420;5.454;2022-12-07T00:46:19;101667.75;;;4.53;92.76
59029;BME280;45919;51.420;5.454;2022-12-07T00:47:21;101671.19;;;4.54;92.82
59029;BME280;45919;51.420;5.454;2022-12-07T00:48:23;101633.94;;;4.34;92.71
59029;BME280;45919;51.420;5.454;2022-12-07T00:49:24;101665.16;;;4.53;92.94
59029;BME280;45919;51.420;5.454;2022-12-07T00:50:26;101657.47;;;4.55;92.92
59029;BME280;45919;51.420;5.454;2022-12-07T00:51:27;101637.56;;;4.37;93.02
59029;BME280;45919;51.420;5.454;2022-12-07T00:52:29;101638.44;;;4.38;93.01
59029;BME280;45919;51.420;5.454;2022-12-07T00:53:31;101603.75;;;4.17;92.96
59029;BME280;45919;51.420;5.454;2022-12-07T00:54:34;101570.91;;;4.00;92.59
59029;BME280;45919;51.420;5.454;2022-12-07T00:55:36;101665.94;;;4.52;92.86
59029;BME280;45919;51.420;5.454;2022-12-07T00:56:38;101660.69;;;4.51;92.82
59029;BME280;45919;51.420;5.454;2022-12-07T00:57:39;101613.59;;;4.25;92.85
59029;BME280;45919;51.420;5.454;2022-12-07T00:58:41;101658.03;;;4.49;92.55
59029;BME280;45919;51.420;5.454;2022-12-07T00:59:43;101612.66;;;4.23;92.73
59029;BME280;45919;51.420;5.454;2022-12-07T01:00:45;101654.38;;;4.46;92.62
59029;BME280;45919;51.420;5.454;2022-12-07T01:01:47;101659.00;;;4.51;92.75
59029;BME280;45919;51.420;5.454;2022-12-07T01:02:48;101653.84;;;4.51;92.71
59029;BME280;45919;51.420;5.454;2022-12-07T01:03:50;101627.78;;;4.32;92.64
59029;BME280;45919;51.420;5.454;2022-12-07T01:04:51;101661.59;;;4.51;92.47
59029;BME280;45919;51.420;5.454;2022-12-07T01:05:54;101660.78;;;4.52;92.55
59029;BME280;45919;51.420;5.454;2022-12-07T01:06:56;101659.91;;;4.52;92.35
59029;BME280;45919;51.420;5.454;2022-12-07T01:07:57;101654.47;;;4.47;92.36
59029;BME280;45919;51.420;5.454;2022-12-07T01:09:00;101670.25;;;4.52;92.52
59029;BME280;45919;51.420;5.454;2022-12-07T01:10:01;101662.50;;;4.52;92.40
59029;BME280;45919;51.420;5.454;2022-12-07T01:11:07;101659.91;;;4.52;92.25
59029;BME280;45919;51.420;5.454;2022-12-07T01:12:09;101664.97;;;4.50;92.35
59029;BME280;45919;51.420;5.454;2022-12-07T01:13:11;101668.38;;;4.49;92.13
59029;BME280;45919;51.420;5.454;2022-12-07T01:14:12;101658.84;;;4.48;92.36
59029;BME280;45919;51.420;5.454;2022-12-07T01:15:14;101669.19;;;4.48;92.15
59029;BME280;45919;51.420;5.454;2022-12-07T01:16:16;101633.50;;;4.26;91.94
59029;BME280;45919;51.420;5.454;2022-12-07T01:17:18;101528.44;;;3.63;92.03
59029;BME280;45919;51.420;5.454;2022-12-07T01:18:19;101669.84;;;4.44;92.30
59029;BME280;45919;51.420;5.454;2022-12-07T01:19:21;101681.78;;;4.42;92.29
59029;BME280;45919;51.420;5.454;2022-12-07T01:20:22;101662.78;;;4.41;92.35
59029;BME280;45919;51.420;5.454;2022-12-07T01:21:27;101659.22;;;4.39;92.15
59029;BME280;45919;51.420;5.454;2022-12-07T01:22:29;101566.34;;;3.79;92.14
59029;BME280;45919;51.420;5.454;2022-12-07T01:23:31;101669.50;;;4.38;92.45
59029;BME280;45919;51.420;5.454;2022-12-07T01:24:33;101658.09;;;4.34;92.42
59029;BME280;45919;51.420;5.454;2022-12-07T01:25:34;101662.47;;;4.35;92.53
59029;BME280;45919;51.420;5.454;2022-12-07T01:26:36;101667.56;;;4.34;92.44
59029;BME280;45919;51.420;5.454;2022-12-07T01:27:38;101650.56;;;4.22;92.38
59029;BME280;45919;51.420;5.454;2022-12-07T01:28:39;101637.94;;;4.12;92.72
59029;BME280;45919;51.420;5.454;2022-12-07T01:29:41;101669.09;;;4.30;92.76
59029;BME280;45919;51.420;5.454;2022-12-07T01:30:42;101641.75;;;4.18;92.99
59029;BME280;45919;51.420;5.454;2022-12-07T01:31:44;101652.41;;;4.25;92.76
59029;BME280;45919;51.420;5.454;2022-12-07T01:32:45;101631.78;;;4.10;92.79
59029;BME280;45919;51.420;5.454;2022-12-07T01:33:53;101670.94;;;4.33;92.83
59029;BME280;45919;51.420;5.454;2022-12-07T01:34:54;101661.41;;;4.32;92.41
59029;BME280;45919;51.420;5.454;2022-12-07T01:36:17;101664.66;;;4.44;92.60
59029;BME280;45919;51.420;5.454;2022-12-07T01:37:19;101621.44;;;4.10;92.40
59029;BME280;45919;51.420;5.454;2022-12-07T01:38:21;101662.53;;;4.37;92.43
59029;BME280;45919;51.420;5.454;2022-12-07T01:39:22;101647.22;;;4.25;91.93
59029;BME280;45919;51.420;5.454;2022-12-07T01:40:24;101625.25;;;4.16;92.29
59029;BME280;45919;51.420;5.454;2022-12-07T01:41:28;101653.72;;;4.33;92.04
59029;BME280;45919;51.420;5.454;2022-12-07T01:42:30;101661.25;;;4.45;92.09
59029;BME280;45919;51.420;5.454;2022-12-07T01:43:33;101646.88;;;4.34;92.16
59029;BME280;45919;51.420;5.454;2022-12-07T01:46:14;101669.59;;;4.56;91.69
59029;BME280;45919;51.420;5.454;2022-12-07T01:47:16;101671.47;;;4.59;91.87
59029;BME280;45919;51.420;5.454;2022-12-07T01:48:27;101661.03;;;4.57;91.76
59029;BME280;45919;51.420;5.454;2022-12-07T01:49:48;101669.75;;;4.76;91.77
59029;BME280;45919;51.420;5.454;2022-12-07T01:50:51;101616.06;;;4.38;91.28
59029;BME280;45919;51.420;5.454;2022-12-07T01:52:13;101665.53;;;4.78;91.60
59029;BME280;45919;51.420;5.454;2022-12-07T01:53:15;101632.38;;;4.54;91.18
59029;BME280;45919;51.420;5.454;2022-12-07T01:54:17;101656.56;;;4.71;91.19
59029;BME280;45919;51.420;5.454;2022-12-07T01:55:21;101660.94;;;4.72;91.09
59029;BME280;45919;51.420;5.454;2022-12-07T01:56:25;101660.28;;;4.76;91.00
59029;BME280;45919;51.420;5.454;2022-12-07T01:57:29;101641.53;;;4.64;91.00
59029;BME280;45919;51.420;5.454;2022-12-07T01:58:32;101656.91;;;4.77;90.99
59029;BME280;45919;51.420;5.454;2022-12-07T01:59:35;101655.19;;;4.78;90.79
59029;BME280;45919;51.420;5.454;2022-12-07T02:00:37;101668.41;;;4.83;91.08
59029;BME280;45919;51.420;5.454;2022-12-07T02:01:39;101566.41;;;4.29;90.43
59029;BME280;45919;51.420;5.454;2022-12-07T02:03:54;101669.59;;;4.89;90.28
59029;BME280;45919;51.420;5.454;2022-12-07T02:04:57;101658.34;;;4.89;90.30
59029;BME280;45919;51.420;5.454;2022-12-07T02:06:00;101643.97;;;4.77;90.27
59029;BME280;45919;51.420;5.454;2022-12-07T02:07:03;101658.19;;;4.86;89.62
59029;BME280;45919;51.420;5.454;2022-12-07T02:08:06;101663.69;;;4.92;90.15
59029;BME280;45919;51.420;5.454;2022-12-07T02:09:08;101615.44;;;4.59;89.87
59029;BME280;45919;51.420;5.454;2022-12-07T02:10:23;101617.75;;;4.71;89.88
59029;BME280;45919;51.420;5.454;2022-12-07T02:11:24;101650.81;;;4.94;89.67
59029;BME280;45919;51.420;5.454;2022-12-07T02:12:26;101617.59;;;4.68;89.51
59029;BME280;45919;51.420;5.454;2022-12-07T02:13:31;101643.00;;;4.92;89.98
59029;BME280;45919;51.420;5.454;2022-12-07T02:14:34;101602.63;;;4.62;90.10
59029;BME280;45919;51.420;5.454;2022-12-07T02:15:48;101650.81;;;4.94;90.20
59029;BME280;45919;51.420;5.454;2022-12-07T02:17:16;101651.19;;;5.01;89.85
59029;BME280;45919;51.420;5.454;2022-12-07T02:20:13;101650.41;;;5.02;90.05
59029;BME280;45919;51.420;5.454;2022-12-07T02:22:51;101647.66;;;4.99;90.00
59029;BME280;45919;51.420;5.454;2022-12-07T02:24:24;101645.16;;;5.01;90.00
59029;BME280;45919;51.420;5.454;2022-12-07T02:25:53;101642.50;;;4.99;89.97
59029;BME280;45919;51.420;5.454;2022-12-07T02:28:31;101641.59;;;4.99;89.98
59029;BME280;45919;51.420;5.454;2022-12-07T02:29:43;101624.31;;;4.81;89.76
59029;BME280;45919;51.420;5.454;2022-12-07T02:30:48;101643.63;;;4.88;89.95
59029;BME280;45919;51.420;5.454;2022-12-07T02:32:00;101657.38;;;4.87;90.02
59029;BME280;45919;51.420;5.454;2022-12-07T02:33:19;101654.63;;;5.00;90.08
59029;BME280;45919;51.420;5.454;2022-12-07T02:34:31;101615.31;;;4.74;89.88
59029;BME280;45919;51.420;5.454;2022-12-07T02:35:56;101651.06;;;4.98;90.16
59029;BME280;45919;51.420;5.454;2022-12-07T02:37:13;101609.91;;;4.70;90.11
59029;BME280;45919;51.420;5.454;2022-12-07T02:39:45;101633.69;;;4.79;90.42
59029;BME280;45919;51.420;5.454;2022-12-07T02:40:56;101604.81;;;4.54;90.34
59029;BME280;45919;51.420;5.454;2022-12-07T02:42:05;101651.63;;;4.76;90.73
59029;BME280;45919;51.420;5.454;2022-12-07T02:43:20;101651.41;;;4.71;90.73
59029;BME280;45919;51.420;5.454;2022-12-07T02:44:27;101639.59;;;4.60;90.99
59029;BME280;45919;51.420;5.454;2022-12-07T02:45:30;101603.84;;;4.36;91.13
59029;BME280;45919;51.420;5.454;2022-12-07T02:47:15;101646.22;;;4.71;91.04
59029;BME280;45919;51.420;5.454;2022-12-07T02:48:17;101638.38;;;4.53;91.33
59029;BME280;45919;51.420;5.454;2022-12-07T02:49:22;101612.56;;;4.38;91.37
59029;BME280;45919;51.420;5.454;2022-12-07T02:50:26;101644.28;;;4.50;91.61
59029;BME280;45919;51.420;5.454;2022-12-07T02:51:31;101652.03;;;4.50;91.85
59029;BME280;45919;51.420;5.454;2022-12-07T02:52:34;101648.31;;;4.45;91.64
59029;BME280;45919;51.420;5.454;2022-12-07T02:53:40;101643.97;;;4.44;91.82
59029;BME280;45919;51.420;5.454;2022-12-07T02:54:42;101631.44;;;4.35;92.06
59029;BME280;45919;51.420;5.454;2022-12-07T02:55:44;101643.88;;;4.42;92.20
59029;BME280;45919;51.420;5.454;2022-12-07T02:56:54;101643.06;;;4.43;92.37
59029;BME280;45919;51.420;5.454;2022-12-07T02:58:27;101642.59;;;4.51;92.42
59029;BME280;45919;51.420;5.454;2022-12-07T03:01:11;101645.72;;;4.45;92.41
59029;BME280;45919;51.420;5.454;2022-12-07T03:04:12;101633.28;;;4.38;92.52
59029;BME280;45919;51.420;5.454;2022-12-07T03:05:27;101654.94;;;4.40;92.22
59029;BME280;45919;51.420;5.454;2022-12-07T03:06:37;101646.47;;;4.42;92.59
59029;BME280;45919;51.420;5.454;2022-12-07T03:09:25;101612.19;;;4.30;92.02
59029;BME280;45919;51.420;5.454;2022-12-07T03:11:50;101553.72;;;4.00;91.75
59029;BME280;45919;51.420;5.454;2022-12-07T03:14:23;101622.22;;;4.40;92.13
59029;BME280;45919;51.420;5.454;2022-12-07T03:16:18;101652.38;;;4.57;92.03
59029;BME280;45919;51.420;5.454;2022-12-07T03:16:58;101647.19;;;4.57;92.00
59029;BME280;45919;51.420;5.454;2022-12-07T03:18:03;101615.81;;;4.34;91.71
59029;BME280;45919;51.420;5.454;2022-12-07T03:19:15;101627.38;;;4.40;91.35
59029;BME280;45919;51.420;5.454;2022-12-07T03:20:21;101652.38;;;4.57;91.39
59029;BME280;45919;51.420;5.454;2022-12-07T03:22:06;101609.19;;;4.39;91.55
59029;BME280;45919;51.420;5.454;2022-12-07T03:23:08;101654.88;;;4.55;91.17
59029;BME280;45919;51.420;5.454;2022-12-07T03:24:33;101654.41;;;4.62;91.08
59029;BME280;45919;51.420;5.454;2022-12-07T03:25:43;101651.88;;;4.47;91.13
59029;BME280;45919;51.420;5.454;2022-12-07T03:27:13;101650.50;;;4.54;91.30
59029;BME280;45919;51.420;5.454;2022-12-07T03:28:19;101658.59;;;4.43;91.37
59029;BME280;45919;51.420;5.454;2022-12-07T03:29:26;101614.84;;;4.15;91.55
59029;BME280;45919;51.420;5.454;2022-12-07T03:30:37;101654.22;;;4.42;91.51
59029;BME280;45919;51.420;5.454;2022-12-07T03:31:46;101660.03;;;4.38;91.79
59029;BME280;45919;51.420;5.454;2022-12-07T03:33:06;101645.16;;;4.34;91.85
59029;BME280;45919;51.420;5.454;2022-12-07T03:34:18;101639.25;;;4.37;92.10
59029;BME280;45919;51.420;5.454;2022-12-07T03:35:28;101640.94;;;4.36;92.12
59029;BME280;45919;51.420;5.454;2022-12-07T03:36:38;101601.81;;;4.13;92.28
59029;BME280;45919;51.420;5.454;2022-12-07T03:41:34;101635.47;;;4.30;92.15
59029;BME280;45919;51.420;5.454;2022-12-07T03:42:41;101547.72;;;3.85;91.89
59029;BME280;45919;51.420;5.454;2022-12-07T03:43:43;101645.22;;;4.36;92.16
59029;BME280;45919;51.420;5.454;2022-12-07T03:44:45;101639.25;;;4.37;91.87
59029;BME280;45919;51.420;5.454;2022-12-07T03:47:30;101629.41;;;4.46;92.16
59029;BME280;45919;51.420;5.454;2022-12-07T03:48:41;101586.22;;;4.12;92.01
59029;BME280;45919;51.420;5.454;2022-12-07T03:49:59;101629.34;;;4.45;92.21
59029;BME280;45919;51.420;5.454;2022-12-07T03:51:38;101630.47;;;4.50;92.10
59029;BME280;45919;51.420;5.454;2022-12-07T03:52:53;101607.88;;;4.30;92.00
59029;BME280;45919;51.420;5.454;2022-12-07T03:54:07;101642.50;;;4.49;92.11
59029;BME280;45919;51.420;5.454;2022-12-07T03:55:18;101641.69;;;4.50;92.03
59029;BME280;45919;51.420;5.454;2022-12-07T03:56:22;101646.84;;;4.50;91.74
59029;BME280;45919;51.420;5.454;2022-12-07T03:57:25;101621.09;;;4.35;91.74
59029;BME280;45919;51.420;5.454;2022-12-07T03:58:28;101650.69;;;4.57;91.54
59029;BME280;45919;51.420;5.454;2022-12-07T03:59:31;101653.34;;;4.59;91.30
59029;BME280;45919;51.420;5.454;2022-12-07T04:00:33;101656.09;;;4.62;91.05
59029;BME280;45919;51.420;5.454;2022-12-07T04:01:35;101650.91;;;4.62;90.87
59029;BME280;45919;51.420;5.454;2022-12-07T04:02:37;101642.16;;;4.60;90.92
59029;BME280;45919;51.420;5.454;2022-12-07T04:03:39;101651.97;;;4.65;90.77
59029;BME280;45919;51.420;5.454;2022-12-07T04:04:41;101606.91;;;4.45;90.60
59029;BME280;45919;51.420;5.454;2022-12-07T04:05:44;101644.28;;;4.67;90.54
59029;BME280;45919;51.420;5.454;2022-12-07T04:06:46;101646.06;;;4.68;90.49
59029;BME280;45919;51.420;5.454;2022-12-07T04:07:47;101644.34;;;4.69;90.47
59029;BME280;45919;51.420;5.454;2022-12-07T04:08:49;101646.31;;;4.73;90.29
59029;BME280;45919;51.420;5.454;2022-12-07T04:09:50;101640.41;;;4.75;90.07
59029;BME280;45919;51.420;5.454;2022-12-07T04:10:52;101648.31;;;4.78;89.90
59029;BME280;45919;51.420;5.454;2022-12-07T04:11:53;101620.00;;;4.65;89.79
59029;BME280;45919;51.420;5.454;2022-12-07T04:12:55;101617.28;;;4.62;89.71
59029;BME280;45919;51.420;5.454;2022-12-07T04:13:56;101637.97;;;4.78;89.80
59029;BME280;45919;51.420;5.454;2022-12-07T04:15:16;101638.94;;;4.81;89.87
59029;BME280;45919;51.420;5.454;2022-12-07T04:16:18;101644.19;;;4.82;89.62
59029;BME280;45919;51.420;5.454;2022-12-07T04:17:20;101638.94;;;4.81;89.66
59029;BME280;45919;51.420;5.454;2022-12-07T04:18:21;101642.50;;;4.83;89.64
59029;BME280;45919;51.420;5.454;2022-12-07T04:19:28;101632.78;;;4.78;89.50
59029;BME280;45919;51.420;5.454;2022-12-07T04:20:30;101644.28;;;4.84;89.43
59029;BME280;45919;51.420;5.454;2022-12-07T04:21:32;101640.78;;;4.83;89.47
59029;BME280;45919;51.420;5.454;2022-12-07T04:22:33;101646.06;;;4.85;89.51
59029;BME280;45919;51.420;5.454;2022-12-07T04:23:35;101609.84;;;4.68;89.62
59029;BME280;45919;51.420;5.454;2022-12-07T04:24:37;101641.84;;;4.87;89.17
59029;BME280;45919;51.420;5.454;2022-12-07T04:25:38;101624.88;;;4.75;89.40
59029;BME280;45919;51.420;5.454;2022-12-07T04:26:41;101638.44;;;4.88;89.45
59029;BME280;45919;51.420;5.454;2022-12-07T04:27:42;101640.97;;;4.86;89.34
59029;BME280;45919;51.420;5.454;2022-12-07T04:28:44;101642.00;;;4.90;89.29
59029;BME280;45919;51.420;5.454;2022-12-07T04:29:45;101641.19;;;4.91;89.28
59029;BME280;45919;51.420;5.454;2022-12-07T04:30:47;101636.09;;;4.93;89.14
59029;BME280;45919;51.420;5.454;2022-12-07T04:31:49;101632.69;;;4.94;89.27
59029;BME280;45919;51.420;5.454;2022-12-07T04:32:51;101634.47;;;4.95;89.15
59029;BME280;45919;51.420;5.454;2022-12-07T04:33:53;101635.44;;;4.97;89.21
59029;BME280;45919;51.420;5.454;2022-12-07T04:34:54;101632.13;;;4.99;89.07
59029;BME280;45919;51.420;5.454;2022-12-07T04:35:56;101627.81;;;5.00;88.80
59029;BME280;45919;51.420;5.454;2022-12-07T04:36:58;101633.06;;;5.01;88.88
59029;BME280;45919;51.420;5.454;2022-12-07T04:37:59;101633.97;;;5.02;88.65
59029;BME280;45919;51.420;5.454;2022-12-07T04:39:02;101625.41;;;5.03;88.63
59029;BME280;45919;51.420;5.454;2022-12-07T04:40:04;101624.50;;;5.02;88.60
59029;BME280;45919;51.420;5.454;2022-12-07T04:41:07;101627.16;;;5.04;88.57
59029;BME280;45919;51.420;5.454;2022-12-07T04:42:09;101623.69;;;5.03;88.78
59029;BME280;45919;51.420;5.454;2022-12-07T04:43:11;101618.44;;;5.02;88.78
59029;BME280;45919;51.420;5.454;2022-12-07T04:44:13;101603.31;;;4.93;88.71
59029;BME280;45919;51.420;5.454;2022-12-07T04:45:15;101620.22;;;5.03;88.85
59029;BME280;45919;51.420;5.454;2022-12-07T04:46:17;101616.75;;;5.02;88.80
59029;BME280;45919;51.420;5.454;2022-12-07T04:47:19;101562.50;;;4.71;88.64
59029;BME280;45919;51.420;5.454;2022-12-07T04:48:20;101620.31;;;5.05;88.78
59029;BME280;45919;51.420;5.454;2022-12-07T04:49:23;101572.59;;;4.83;88.58
59029;BME280;45919;51.420;5.454;2022-12-07T04:50:25;101578.91;;;4.88;88.67
59029;BME280;45919;51.420;5.454;2022-12-07T04:51:28;101585.34;;;4.96;88.75
59029;BME280;45919;51.420;5.454;2022-12-07T04:52:30;101621.63;;;5.14;88.41
59029;BME280;45919;51.420;5.454;2022-12-07T04:53:31;101614.75;;;5.15;88.71
59029;BME280;45919;51.420;5.454;2022-12-07T04:54:33;101616.53;;;5.16;88.21
59029;BME280;45919;51.420;5.454;2022-12-07T04:55:34;101583.56;;;4.95;88.43
59029;BME280;45919;51.420;5.454;2022-12-07T04:56:36;101586.03;;;4.92;88.06
59029;BME280;45919;51.420;5.454;2022-12-07T04:57:38;101625.19;;;5.17;88.48
59029;BME280;45919;51.420;5.454;2022-12-07T04:58:39;101621.00;;;5.19;88.48
59029;BME280;45919;51.420;5.454;2022-12-07T04:59:41;101609.19;;;5.07;88.36
59029;BME280;45919;51.420;5.454;2022-12-07T05:00:45;101623.66;;;5.20;88.22
59029;BME280;45919;51.420;5.454;2022-12-07T05:01:47;101617.69;;;5.21;88.21
59029;BME280;45919;51.420;5.454;2022-12-07T05:02:48;101621.13;;;5.22;88.08
59029;BME280;45919;51.420;5.454;2022-12-07T05:03:50;101588.25;;;5.02;88.01
59029;BME280;45919;51.420;5.454;2022-12-07T05:04:52;101622.94;;;5.23;88.02
59029;BME280;45919;51.420;5.454;2022-12-07T05:05:53;101577.44;;;4.93;88.17
59029;BME280;45919;51.420;5.454;2022-12-07T05:06:55;101621.13;;;5.22;88.01
59029;BME280;45919;51.420;5.454;2022-12-07T05:07:56;101612.19;;;5.15;88.04
59029;BME280;45919;51.420;5.454;2022-12-07T05:08:58;101623.72;;;5.22;87.87
59029;BME280;45919;51.420;5.454;2022-12-07T05:09:59;101592.53;;;5.02;87.90
59029;BME280;45919;51.420;5.454;2022-12-07T05:11:02;101628.97;;;5.23;87.91
59029;BME280;45919;51.420;5.454;2022-12-07T05:12:04;101560.53;;;4.83;88.09
59029;BME280;45919;51.420;5.454;2022-12-07T05:13:06;101628.75;;;5.19;88.11
59029;BME280;45919;51.420;5.454;2022-12-07T05:15:15;101622.59;;;5.17;88.36
59029;BME280;45919;51.420;5.454;2022-12-07T05:16:17;101631.03;;;5.12;88.47
59029;BME280;45919;51.420;5.454;2022-12-07T05:17:18;101588.63;;;4.92;88.71
59029;BME280;45919;51.420;5.454;2022-12-07T05:18:20;101586.88;;;4.93;88.68
59029;BME280;45919;51.420;5.454;2022-12-07T05:19:21;101606.38;;;5.02;88.82
59029;BME280;45919;51.420;5.454;2022-12-07T05:20:23;101618.00;;;5.11;88.91
59029;BME280;45919;51.420;5.454;2022-12-07T05:21:24;101569.28;;;4.85;88.83
59029;BME280;45919;51.420;5.454;2022-12-07T05:22:26;101623.19;;;5.11;88.98
59029;BME280;45919;51.420;5.454;2022-12-07T05:23:29;101618.84;;;5.10;88.90
59029;BME280;45919;51.420;5.454;2022-12-07T05:24:30;101585.13;;;4.92;89.05
59029;BME280;45919;51.420;5.454;2022-12-07T05:25:32;101583.19;;;4.87;89.03
59029;BME280;45919;51.420;5.454;2022-12-07T05:26:34;101618.91;;;5.11;88.96
59029;BME280;45919;51.420;5.454;2022-12-07T05:27:35;101588.97;;;5.00;88.86
59029;BME280;45919;51.420;5.454;2022-12-07T05:28:37;101611.19;;;5.13;88.89
59029;BME280;45919;51.420;5.454;2022-12-07T05:29:39;101607.81;;;5.14;88.88
59029;BME280;45919;51.420;5.454;2022-12-07T05:30:40;101597.13;;;5.08;88.62
59029;BME280;45919;51.420;5.454;2022-12-07T05:31:43;101615.66;;;5.16;89.03
59029;BME280;45919;51.420;5.454;2022-12-07T05:32:45;101615.66;;;5.16;88.79
59029;BME280;45919;51.420;5.454;2022-12-07T05:33:46;101618.19;;;5.14;88.56
59029;BME280;45919;51.420;5.454;2022-12-07T05:34:48;101613.88;;;5.14;88.65
59029;BME280;45919;51.420;5.454;2022-12-07T05:35:49;101615.47;;;5.12;88.44
59029;BME280;45919;51.420;5.454;2022-12-07T05:36:51;101613.78;;;5.13;88.73
59029;BME280;45919;51.420;5.454;2022-12-07T05:37:52;101613.00;;;5.14;88.82
59029;BME280;45919;51.420;5.454;2022-12-07T05:38:54;101586.16;;;4.95;88.41
59029;BME280;45919;51.420;5.454;2022-12-07T05:39:55;101614.75;;;5.15;88.40
59029;BME280;45919;51.420;5.454;2022-12-07T05:41:00;101610.47;;;5.16;88.55
59029;BME280;45919;51.420;5.454;2022-12-07T05:42:03;101585.28;;;4.95;88.61
59029;BME280;45919;51.420;5.454;2022-12-07T05:43:13;101587.13;;;4.97;88.32
59029;BME280;45919;51.420;5.454;2022-12-07T05:44:15;101617.22;;;5.12;88.42
59029;BME280;45919;51.420;5.454;2022-12-07T05:45:16;101577.09;;;4.87;88.46
59029;BME280;45919;51.420;5.454;2022-12-07T05:46:18;101608.41;;;5.08;88.60
59029;BME280;45919;51.420;5.454;2022-12-07T05:47:19;101610.03;;;5.06;88.58
59029;BME280;45919;51.420;5.454;2022-12-07T05:48:21;101617.72;;;5.05;88.45
59029;BME280;45919;51.420;5.454;2022-12-07T05:49:23;101590.94;;;4.87;88.44
59029;BME280;45919;51.420;5.454;2022-12-07T05:50:24;101589.34;;;4.89;88.43
59029;BME280;45919;51.420;5.454;2022-12-07T05:51:26;101596.44;;;4.94;88.41
59029;BME280;45919;51.420;5.454;2022-12-07T05:52:28;101606.97;;;4.97;88.54
59029;BME280;45919;51.420;5.454;2022-12-07T05:53:29;101598.22;;;4.95;88.53
59029;BME280;45919;51.420;5.454;2022-12-07T05:54:31;101601.44;;;4.90;88.63
59029;BME280;45919;51.420;5.454;2022-12-07T05:55:32;101597.03;;;4.88;88.63
59029;BME280;45919;51.420;5.454;2022-12-07T05:56:34;101595.16;;;4.85;88.73
59029;BME280;45919;51.420;5.454;2022-12-07T05:57:35;101601.16;;;4.84;88.68
59029;BME280;45919;51.420;5.454;2022-12-07T05:58:37;101594.03;;;4.80;88.54
59029;BME280;45919;51.420;5.454;2022-12-07T05:59:57;101568.09;;;4.62;88.43
59029;BME280;45919;51.420;5.454;2022-12-07T06:00:59;101525.38;;;4.35;88.59
59029;BME280;45919;51.420;5.454;2022-12-07T06:02:03;101598.09;;;4.75;88.70
59029;BME280;45919;51.420;5.454;2022-12-07T06:03:05;101557.84;;;4.47;88.88
59029;BME280;45919;51.420;5.454;2022-12-07T06:04:07;101603.91;;;4.71;88.79
59029;BME280;45919;51.420;5.454;2022-12-07T06:05:08;101612.50;;;4.70;88.90
59029;BME280;45919;51.420;5.454;2022-12-07T06:06:10;101609.91;;;4.70;88.99